Time;durP1;ratioP1;P1;durP2;ratioP2;P2;SDS_P1;SDS_P2;PMS_P1;PMS_P2;Temp;Humidity;BMP_temperature;BMP_pressure;BME280_temperature;BME280_humidity;BME280_pressure;Samples;Min_cycle;Max_cycle;Signal;HPM_P1;HPM_P2
2021/05/01 00:01:42;;;;;;;13.90;3.00;;;;;;;24.93;18.47;100998.78;5109870;28;20032;-65
2021/05/01 00:04:09;;;;;;;15.95;2.30;;;;;;;25.02;17.81;100993.00;5110125;28;20048;-65
2021/05/01 00:06:36;;;;;;;8.90;2.83;;;;;;;25.13;17.39;100999.78;5110137;28;20043;-66
2021/05/01 00:09:05;;;;;;;10.80;2.20;;;;;;;25.19;17.48;101003.13;5111052;28;20040;-66
2021/05/01 00:11:33;;;;;;;10.55;2.92;;;;;;;25.19;17.54;100999.53;5109384;28;20039;-66
2021/05/01 00:14:00;;;;;;;14.55;2.35;;;;;;;25.19;17.32;100997.72;5111085;28;20130;-65
2021/05/01 00:16:28;;;;;;;13.70;2.03;;;;;;;25.20;17.37;101010.31;5109363;28;20578;-66
2021/05/01 00:18:56;;;;;;;10.98;2.10;;;;;;;25.23;17.23;101020.97;5110534;28;20043;-66
2021/05/01 00:21:23;;;;;;;14.27;2.65;;;;;;;25.22;17.19;101011.09;5108702;28;20486;-65
2021/05/01 00:23:51;;;;;;;17.10;2.47;;;;;;;25.22;17.11;101018.31;5110934;28;20039;-65
2021/05/01 00:26:18;;;;;;;12.68;2.38;;;;;;;25.20;17.34;101023.81;5109157;28;20057;-65
2021/05/01 00:28:46;;;;;;;19.13;2.60;;;;;;;25.19;17.13;101011.25;5110301;28;20197;-65
2021/05/01 00:31:14;;;;;;;10.32;1.65;;;;;;;25.16;17.28;101014.03;5108882;28;20179;-65
2021/05/01 00:33:41;;;;;;;17.63;2.40;;;;;;;25.13;17.61;101008.78;5110415;28;20040;-66
2021/05/01 00:36:08;;;;;;;14.32;3.58;;;;;;;25.11;17.69;101010.66;5108959;28;20046;-65
2021/05/01 00:38:36;;;;;;;18.50;2.92;;;;;;;25.19;17.41;101011.25;5108839;28;20130;-65
2021/05/01 00:41:03;;;;;;;13.82;3.65;;;;;;;25.27;17.36;101008.22;5108933;28;20073;-65
2021/05/01 00:43:30;;;;;;;13.43;2.28;;;;;;;25.34;17.21;101012.41;5110450;28;20109;-66
2021/05/01 00:46:04;;;;;;;17.13;3.05;;;;;;;25.40;17.17;101015.72;5108624;28;20559;-66
2021/05/01 00:48:31;;;;;;;19.50;2.87;;;;;;;25.47;17.06;101012.81;5099825;28;20101;-66
2021/05/01 00:50:59;;;;;;;10.13;1.92;;;;;;;25.47;17.04;101013.66;5110701;28;20279;-66
2021/05/01 00:53:27;;;;;;;14.35;2.75;;;;;;;25.46;16.51;101008.34;5109672;28;20039;-65
2021/05/01 00:55:55;;;;;;;9.07;1.67;;;;;;;25.46;16.63;101013.75;5109239;28;20044;-65
2021/05/01 00:58:23;;;;;;;16.50;2.17;;;;;;;25.47;16.36;101000.13;5110247;28;20036;-65
2021/05/01 01:01:12;;;;;;;15.88;2.03;;;;;;;25.49;16.40;101005.47;5108042;28;20126;-66
2021/05/01 01:03:41;;;;;;;19.70;1.98;;;;;;;25.53;16.20;100990.91;5108854;28;20108;-66
2021/05/01 01:06:09;;;;;;;8.95;1.42;;;;;;;25.51;16.28;100990.09;5108891;28;20044;-65
2021/05/01 01:08:36;;;;;;;9.60;2.00;;;;;;;25.50;16.27;100988.31;5109841;28;20063;-65
2021/05/01 01:11:03;;;;;;;9.27;1.80;;;;;;;25.48;16.16;100982.97;5108247;28;20386;-65
2021/05/01 01:13:30;;;;;;;18.48;1.98;;;;;;;25.46;15.98;100978.59;5121634;28;20055;-65
2021/05/01 01:15:58;;;;;;;14.45;1.90;;;;;;;25.44;16.12;100977.78;5114490;28;20538;-66
2021/05/01 01:18:25;;;;;;;12.02;2.00;;;;;;;25.42;16.18;100977.81;5110354;28;20430;-66
2021/05/01 01:20:54;;;;;;;6.97;1.98;;;;;;;25.42;16.34;100977.81;5107390;28;20059;-65
2021/05/01 01:23:23;;;;;;;10.85;2.03;;;;;;;25.41;16.28;100976.94;5110920;28;20046;-65
2021/05/01 01:25:50;;;;;;;11.57;2.55;;;;;;;25.40;16.12;100977.88;5113725;28;20039;-65
2021/05/01 01:28:18;;;;;;;9.52;1.95;;;;;;;25.39;16.02;100967.16;5113291;28;20043;-65
2021/05/01 01:30:45;;;;;;;11.00;1.98;;;;;;;25.37;15.91;100964.50;5112601;28;20060;-65
2021/05/01 01:33:13;;;;;;;7.90;1.50;;;;;;;25.37;15.78;100959.09;5113298;28;20052;-65
2021/05/01 01:35:41;;;;;;;10.93;1.65;;;;;;;25.38;15.99;100957.28;5113372;28;20046;-65
2021/05/01 01:38:09;;;;;;;11.52;1.65;;;;;;;25.36;15.82;100962.75;5110258;28;20032;-65
2021/05/01 01:40:39;;;;;;;12.63;1.88;;;;;;;25.36;15.89;100954.63;5121309;27;20128;-65
2021/05/01 01:43:06;;;;;;;12.27;1.95;;;;;;;25.35;15.97;100963.69;5112941;28;20047;-65
2021/05/01 01:45:34;;;;;;;12.85;2.20;;;;;;;25.39;15.95;100961.75;5112719;28;20119;-65
2021/05/01 01:48:02;;;;;;;8.25;1.80;;;;;;;25.37;16.06;100967.22;5111458;27;20096;-66
2021/05/01 01:50:29;;;;;;;9.60;1.73;;;;;;;25.34;16.11;100951.09;5114196;28;20047;-66
2021/05/01 01:52:57;;;;;;;15.43;3.08;;;;;;;25.36;16.06;100951.94;5111390;27;20035;-66
2021/05/01 01:55:25;;;;;;;9.43;2.20;;;;;;;25.38;15.92;100954.59;5113840;28;20032;-66
2021/05/01 01:57:54;;;;;;;15.75;2.50;;;;;;;25.35;15.90;100962.81;5112873;28;20105;-65
2021/05/01 02:00:23;;;;;;;10.57;2.45;;;;;;;25.33;16.13;100962.91;5114325;28;20046;-65
2021/05/01 02:02:50;;;;;;;9.48;1.80;;;;;;;25.28;16.00;100961.31;5112101;28;20126;-66
2021/05/01 02:05:18;;;;;;;12.90;2.45;;;;;;;25.25;16.19;100973.13;5109756;28;20134;-65
2021/05/01 02:07:45;;;;;;;15.75;2.55;;;;;;;25.26;16.11;100957.81;5112311;28;20529;-65
2021/05/01 02:10:14;;;;;;;11.68;1.77;;;;;;;25.24;16.06;100959.69;5113684;28;20040;-66
2021/05/01 02:12:42;;;;;;;8.77;2.05;;;;;;;25.23;16.11;100955.22;5111490;28;20032;-65
2021/05/01 02:15:14;;;;;;;8.93;1.85;;;;;;;25.22;16.43;100957.03;5113156;27;20373;-65
2021/05/01 02:17:43;;;;;;;13.60;2.28;;;;;;;25.18;16.49;100958.13;5110970;28;20462;-65
2021/05/01 02:20:12;;;;;;;7.75;1.83;;;;;;;25.16;16.82;100956.41;5109556;28;20503;-65
2021/05/01 02:22:39;;;;;;;15.23;3.30;;;;;;;25.13;16.67;100961.97;5113563;28;20093;-65
2021/05/01 02:25:09;;;;;;;9.23;1.90;;;;;;;25.10;17.14;100967.47;5111203;27;20499;-65
2021/05/01 02:27:36;;;;;;;13.32;1.95;;;;;;;25.02;17.29;100965.97;5112253;28;20035;-65
2021/05/01 02:30:06;;;;;;;10.27;1.75;;;;;;;24.98;17.44;100977.84;5112291;28;20126;-65
2021/05/01 02:32:35;;;;;;;8.50;1.48;;;;;;;24.96;17.57;100973.44;5110836;28;20114;-66
2021/05/01 02:35:02;;;;;;;10.82;2.20;;;;;;;24.93;17.61;100977.16;5110325;28;20089;-66
2021/05/01 02:37:29;;;;;;;9.88;1.92;;;;;;;24.90;17.64;100982.69;5111461;28;20569;-66
2021/05/01 02:39:56;;;;;;;14.65;2.17;;;;;;;24.86;17.74;100978.31;5110865;28;20051;-66
2021/05/01 02:42:23;;;;;;;10.05;2.00;;;;;;;24.83;17.87;100969.44;5111923;28;20059;-65
2021/05/01 02:44:51;;;;;;;10.93;2.05;;;;;;;24.84;17.97;100980.19;5112429;28;20039;-65
2021/05/01 02:47:18;;;;;;;10.63;2.20;;;;;;;24.82;17.90;100978.47;5109369;28;20111;-65
2021/05/01 02:49:46;;;;;;;10.10;3.13;;;;;;;24.81;17.96;100982.16;5110260;28;20059;-65
2021/05/01 02:52:14;;;;;;;9.65;2.00;;;;;;;24.76;18.22;100976.91;5111465;28;20043;-66
2021/05/01 02:54:41;;;;;;;15.15;2.58;;;;;;;24.75;17.88;100971.56;5111698;28;20147;-65
2021/05/01 02:57:08;;;;;;;10.40;2.15;;;;;;;24.77;17.83;100965.16;5111445;28;20425;-66
2021/05/01 02:59:35;;;;;;;9.73;2.35;;;;;;;24.79;17.65;100979.50;5108934;28;20126;-66
2021/05/01 03:02:03;;;;;;;8.27;1.70;;;;;;;24.82;17.48;100975.78;5109940;28;20044;-66
2021/05/01 03:04:30;;;;;;;8.50;2.25;;;;;;;24.85;17.28;100984.66;5112027;28;20039;-65
2021/05/01 03:06:58;;;;;;;11.55;2.38;;;;;;;24.87;17.18;100987.31;5111344;28;20442;-65
2021/05/01 03:09:26;;;;;;;9.05;2.28;;;;;;;24.86;17.15;100985.53;5111218;28;20104;-66
2021/05/01 03:11:53;;;;;;;12.43;2.10;;;;;;;24.84;17.00;100992.81;5113020;28;20093;-65
2021/05/01 03:14:20;;;;;;;10.85;1.83;;;;;;;24.82;17.13;100991.97;5111831;28;20066;-65
2021/05/01 03:16:48;;;;;;;11.38;1.75;;;;;;;24.82;16.92;100992.88;5111335;28;20058;-65
2021/05/01 03:19:15;;;;;;;9.25;1.80;;;;;;;24.81;16.78;100995.66;5111182;28;20127;-66
2021/05/01 03:21:43;;;;;;;13.38;3.10;;;;;;;24.81;16.73;100987.56;5110672;28;20566;-66
2021/05/01 03:24:12;;;;;;;7.95;1.52;;;;;;;24.83;16.77;101001.84;5112420;28;20035;-65
2021/05/01 03:26:40;;;;;;;10.63;2.10;;;;;;;24.81;16.45;101001.91;5110234;27;20032;-65
2021/05/01 03:29:07;;;;;;;10.15;1.63;;;;;;;24.81;16.33;101003.75;5111025;28;20067;-66
2021/05/01 03:31:35;;;;;;;11.90;1.70;;;;;;;24.82;16.28;101003.66;5109789;28;20084;-66
2021/05/01 03:34:02;;;;;;;9.63;1.73;;;;;;;24.85;16.31;101008.09;5112285;28;20462;-66
2021/05/01 03:36:29;;;;;;;7.68;1.50;;;;;;;24.84;16.44;101019.81;5109461;28;20044;-66
2021/05/01 03:38:56;;;;;;;10.82;1.33;;;;;;;24.83;16.33;101018.06;5110516;28;20479;-65
2021/05/01 03:41:25;;;;;;;13.88;1.63;;;;;;;24.86;16.36;101023.34;5111598;28;20149;-65
2021/05/01 03:43:52;;;;;;;7.15;1.40;;;;;;;24.91;16.46;101016.88;5111127;28;20127;-65
2021/05/01 03:46:19;;;;;;;14.50;2.22;;;;;;;24.98;16.44;101023.78;5091353;28;20040;-65
2021/05/01 03:48:46;;;;;;;13.02;2.10;;;;;;;25.07;16.57;101019.84;5109542;28;20556;-66
2021/05/01 03:51:14;;;;;;;8.68;1.70;;;;;;;25.17;16.56;101028.44;5110466;28;20062;-66
2021/05/01 03:53:41;;;;;;;10.98;1.98;;;;;;;25.25;16.93;101031.72;5111602;28;20042;-65
2021/05/01 03:56:08;;;;;;;8.07;2.03;;;;;;;25.36;17.04;101030.34;5110876;27;20064;-65
2021/05/01 03:58:36;;;;;;;12.55;2.22;;;;;;;25.49;17.09;101024.41;5111280;28;20035;-65
2021/05/01 04:01:03;;;;;;;11.95;2.03;;;;;;;25.63;17.06;101019.34;5110093;28;20062;-65
2021/05/01 04:03:30;;;;;;;11.50;2.17;;;;;;;25.78;16.95;101016.88;5109928;28;20059;-66
2021/05/01 04:05:58;;;;;;;9.40;1.58;;;;;;;25.87;17.00;101026.38;5110285;28;20125;-65
2021/05/01 04:08:26;;;;;;;7.85;1.40;;;;;;;25.93;17.02;101015.31;5109544;28;20073;-68
2021/05/01 04:10:53;;;;;;;5.40;1.05;;;;;;;25.94;17.13;101021.59;5111080;27;20502;-65
2021/05/01 04:13:20;;;;;;;11.85;1.45;;;;;;;25.96;17.26;101025.13;5110545;28;20085;-65
2021/05/01 04:15:48;;;;;;;9.75;1.83;;;;;;;26.01;17.14;101025.78;5109575;28;20517;-65
2021/05/01 04:18:16;;;;;;;11.75;1.65;;;;;;;26.07;17.02;101026.41;5110394;28;20521;-66
2021/05/01 04:20:43;;;;;;;12.65;1.58;;;;;;;26.26;16.77;101033.72;5110014;27;20578;-65
2021/05/01 04:23:10;;;;;;;7.65;1.40;;;;;;;26.44;16.59;101027.50;5107972;28;20039;-66
2021/05/01 04:25:37;;;;;;;9.93;1.27;;;;;;;26.54;16.49;101020.69;5110363;28;20051;-65
2021/05/01 04:28:05;;;;;;;9.60;1.70;;;;;;;26.55;16.34;101019.75;5110206;28;20036;-66
2021/05/01 04:30:33;;;;;;;8.70;1.63;;;;;;;26.53;16.58;101018.94;5109382;28;20040;-65
2021/05/01 04:33:01;;;;;;;3.97;1.17;;;;;;;26.57;16.35;101021.44;5110143;28;20451;-66
2021/05/01 04:35:28;;;;;;;9.10;1.58;;;;;;;26.69;16.45;101021.81;5109920;28;20082;-66
2021/05/01 04:37:56;;;;;;;9.48;1.73;;;;;;;26.72;16.45;101021.66;5110571;28;20039;-68
2021/05/01 04:40:23;;;;;;;5.82;1.10;;;;;;;26.65;16.12;101026.47;5109652;28;20044;-65
2021/05/01 04:42:51;;;;;;;7.97;1.63;;;;;;;26.56;16.19;101025.09;5109657;28;20076;-65
2021/05/01 04:45:19;;;;;;;5.07;1.40;;;;;;;26.49;16.04;101015.50;5110472;28;20065;-65
2021/05/01 04:47:47;;;;;;;3.90;1.05;;;;;;;26.46;16.04;101023.75;5109268;28;20093;-65
2021/05/01 04:50:16;;;;;;;14.10;2.13;;;;;;;26.42;16.11;101027.56;5110470;28;20097;-65
2021/05/01 04:52:43;;;;;;;6.15;1.60;;;;;;;26.34;16.04;101018.91;5108422;28;20063;-66
2021/05/01 04:55:13;;;;;;;6.93;1.40;;;;;;;26.33;16.15;101029.81;5110032;28;20063;-66
2021/05/01 04:57:43;;;;;;;7.68;1.25;;;;;;;26.43;16.15;101037.44;5110850;28;20032;-65
2021/05/01 05:00:13;;;;;;;5.50;1.25;;;;;;;26.65;16.18;101042.75;5113774;27;20039;-65
2021/05/01 05:02:40;;;;;;;7.85;1.52;;;;;;;26.98;15.96;101043.00;5113777;27;20051;-65
2021/05/01 05:05:09;;;;;;;8.55;1.83;;;;;;;27.29;15.72;101047.84;5114672;28;20871;-65
2021/05/01 05:07:39;;;;;;;8.50;1.42;;;;;;;27.36;15.67;101055.63;5113115;28;20093;-65
2021/05/01 05:10:09;;;;;;;6.03;1.40;;;;;;;27.36;15.86;101057.44;5124399;27;20141;-65
2021/05/01 05:12:36;;;;;;;11.73;1.80;;;;;;;27.49;16.13;101060.44;5113557;28;20122;-65
2021/05/01 05:15:04;;;;;;;8.88;1.67;;;;;;;27.73;15.98;101060.09;5115711;28;20035;-65
2021/05/01 05:17:31;;;;;;;8.27;1.65;;;;;;;27.94;16.00;101054.53;5113844;28;20085;-65
2021/05/01 05:19:58;;;;;;;24.60;2.50;;;;;;;28.34;15.92;101056.94;5114262;28;20118;-65
2021/05/01 05:22:25;;;;;;;9.15;1.50;;;;;;;28.74;15.77;101063.84;5113470;27;20047;-65
2021/05/01 05:24:54;;;;;;;11.05;1.45;;;;;;;29.13;15.72;101068.03;5112755;28;20400;-65
2021/05/01 05:27:20;;;;;;;7.65;1.70;;;;;;;29.46;15.57;101062.53;5113895;28;20055;-65
2021/05/01 05:29:51;;;;;;;6.10;1.15;;;;;;;29.75;15.29;101080.75;5113580;27;20052;-65
2021/05/01 05:32:18;;;;;;;12.48;1.50;;;;;;;30.09;15.37;101068.75;5108017;28;20043;-65
2021/05/01 05:34:51;;;;;;;11.57;2.42;;;;;;;30.37;15.18;101068.81;5113141;27;20089;-65
2021/05/01 05:37:19;;;;;;;21.30;2.37;;;;;;;30.73;14.79;101079.28;5110857;28;20067;-65
2021/05/01 05:39:48;;;;;;;9.02;2.10;;;;;;;30.91;15.01;101079.97;5110728;28;20101;-65
2021/05/01 05:42:18;;;;;;;11.32;2.45;;;;;;;31.11;15.29;101081.47;5112946;28;20491;-66
2021/05/01 05:44:48;;;;;;;13.27;2.55;;;;;;;31.43;15.37;101079.34;5112444;27;20111;-65
2021/05/01 05:47:16;;;;;;;6.95;1.25;;;;;;;31.54;14.89;101091.28;5112928;28;24634;-65
2021/05/01 05:49:44;;;;;;;11.05;1.85;;;;;;;31.55;14.98;101084.00;5114268;28;20055;-66
2021/05/01 05:52:11;;;;;;;10.68;2.00;;;;;;;31.24;15.03;101087.88;5113953;28;20560;-65
2021/05/01 05:54:39;;;;;;;15.75;2.17;;;;;;;30.73;15.59;101081.13;5113880;28;20085;-65
2021/05/01 05:57:08;;;;;;;9.63;1.85;;;;;;;30.23;15.55;101087.84;5113773;28;20075;-66
2021/05/01 05:59:37;;;;;;;23.92;2.03;;;;;;;30.03;15.83;101089.06;5112972;28;20028;-65
2021/05/01 06:02:05;;;;;;;11.60;2.10;;;;;;;30.13;16.16;101089.38;5113939;28;20109;-65
2021/05/01 06:04:35;;;;;;;8.88;1.63;;;;;;;30.52;16.22;101091.56;5113264;28;20066;-65
2021/05/01 06:07:12;;;;;;;10.23;2.25;;;;;;;31.13;15.88;101104.03;5093750;28;20059;-66
2021/05/01 06:09:40;;;;;;;8.80;1.65;;;;;;;31.52;15.78;101093.25;5092173;28;20063;-65
2021/05/01 06:12:10;;;;;;;8.93;3.05;;;;;;;31.84;15.76;101098.44;5093514;28;20501;-65
2021/05/01 06:14:43;;;;;;;11.98;2.00;;;;;;;32.17;15.78;101100.75;5103910;27;20038;-66
2021/05/01 06:17:11;;;;;;;12.10;2.20;;;;;;;32.42;16.03;101101.69;5115617;27;20089;-65
2021/05/01 06:19:40;;;;;;;12.93;2.00;;;;;;;32.70;15.53;101102.47;5113630;28;20491;-65
2021/05/01 06:22:07;;;;;;;15.13;2.08;;;;;;;32.95;15.34;101093.41;5112990;28;20040;-66
2021/05/01 06:24:35;;;;;;;11.35;2.38;;;;;;;33.17;15.10;101099.03;5113404;28;20031;-65
2021/05/01 06:27:02;;;;;;;11.90;2.05;;;;;;;33.31;14.81;101090.72;5112122;28;20123;-66
2021/05/01 06:29:31;;;;;;;12.88;2.67;;;;;;;33.56;15.14;101096.13;5113099;28;20032;-65
2021/05/01 06:31:59;;;;;;;16.42;2.40;;;;;;;33.81;15.13;101099.75;5112362;28;20044;-66
2021/05/01 06:34:27;;;;;;;8.45;2.22;;;;;;;33.83;14.88;101092.31;5112554;28;20058;-66
2021/05/01 06:36:55;;;;;;;16.92;3.33;;;;;;;33.41;15.15;101085.47;5113205;28;20122;-65
2021/05/01 06:39:24;;;;;;;12.63;1.90;;;;;;;33.05;15.36;101086.25;5113312;28;20104;-66
2021/05/01 06:41:56;;;;;;;12.93;2.35;;;;;;;32.76;15.42;101091.09;5112864;28;20097;-66
2021/05/01 06:44:39;;;;;;;19.00;3.38;;;;;;;33.05;15.80;101097.22;5112726;28;20039;-65
2021/05/01 06:47:09;;;;;;;16.27;3.95;;;;;;;33.35;15.75;101103.19;5112787;28;20116;-65
2021/05/01 06:49:48;;;;;;;18.15;3.30;;;;;;;33.16;15.96;101103.63;5112446;28;20561;-65
2021/05/01 06:52:17;;;;;;;13.48;3.22;;;;;;;33.17;15.88;101101.78;5112175;28;20058;-65
2021/05/01 06:54:45;;;;;;;12.82;3.03;;;;;;;33.43;15.72;101103.50;5112336;28;20448;-65
2021/05/01 06:57:14;;;;;;;17.17;2.67;;;;;;;33.86;15.27;101108.53;5112555;28;20071;-65
2021/05/01 06:59:42;;;;;;;14.98;2.72;;;;;;;34.29;14.92;101111.59;5110057;28;20089;-66
2021/05/01 07:02:12;;;;;;;14.88;2.78;;;;;;;34.59;15.45;101111.06;5108954;27;20097;-65
2021/05/01 07:04:41;;;;;;;11.70;3.17;;;;;;;34.78;14.96;101117.75;5110643;28;20435;-65
2021/05/01 07:07:08;;;;;;;17.33;2.63;;;;;;;34.99;14.85;101114.22;5112321;28;20063;-65
2021/05/01 07:09:38;;;;;;;16.95;3.08;;;;;;;35.32;14.98;101114.25;5109356;27;20115;-66
2021/05/01 07:12:08;;;;;;;14.00;2.92;;;;;;;35.56;14.59;101105.88;5086860;28;20115;-66
2021/05/01 07:14:36;;;;;;;15.05;3.45;;;;;;;35.67;14.26;101110.44;5106317;28;20031;-66
2021/05/01 07:17:06;;;;;;;16.40;2.72;;;;;;;35.76;14.36;101120.72;5083839;28;20135;-66
2021/05/01 07:19:35;;;;;;;17.27;3.08;;;;;;;35.89;14.03;101129.66;5089643;28;20131;-66
2021/05/01 07:22:02;;;;;;;14.90;2.40;;;;;;;35.84;13.98;101118.19;5110280;28;20503;-65
2021/05/01 07:24:30;;;;;;;13.18;2.33;;;;;;;36.04;13.89;101122.84;5110969;28;20051;-65
2021/05/01 07:26:58;;;;;;;24.70;3.85;;;;;;;36.16;13.64;101135.56;5090409;28;20044;-66
2021/05/01 07:29:29;;;;;;;15.73;2.88;;;;;;;36.21;13.82;101130.56;5097613;28;20024;-66
2021/05/01 07:31:58;;;;;;;15.18;2.75;;;;;;;36.27;13.70;101138.28;5110140;28;20077;-67
2021/05/01 07:34:27;;;;;;;17.40;2.80;;;;;;;36.46;13.81;101129.31;5112243;27;20055;-66
2021/05/01 07:37:00;;;;;;;14.68;2.60;;;;;;;36.73;14.06;101129.69;5111512;28;20070;-66
2021/05/01 07:39:30;;;;;;;12.68;2.58;;;;;;;36.93;13.81;101133.41;5110220;28;20028;-67
2021/05/01 07:42:00;;;;;;;16.50;2.83;;;;;;;37.11;13.66;101130.91;5110651;28;20050;-66
2021/05/01 07:44:30;;;;;;;12.77;3.13;;;;;;;37.28;13.39;101137.66;5111592;28;20047;-66
2021/05/01 07:46:59;;;;;;;20.13;2.88;;;;;;;37.41;13.57;101146.56;5108954;28;20043;-66
2021/05/01 07:49:27;;;;;;;19.05;4.00;;;;;;;37.68;14.07;101152.31;5105903;28;20085;-66
2021/05/01 07:51:56;;;;;;;15.75;3.33;;;;;;;37.68;15.33;101157.81;5110227;28;20040;-67
2021/05/01 07:54:23;;;;;;;30.80;4.20;;;;;;;37.08;16.25;101164.22;5081261;28;20071;-66
2021/05/01 07:56:50;;;;;;;12.43;2.50;;;;;;;36.46;17.33;101162.31;5111221;28;20047;-67
2021/05/01 07:59:17;;;;;;;12.40;2.60;;;;;;;35.80;18.55;101168.91;5110062;28;20153;-66
2021/05/01 08:01:44;;;;;;;14.30;3.00;;;;;;;35.07;19.97;101184.00;5110142;28;20036;-67
2021/05/01 08:04:13;;;;;;;13.50;2.92;;;;;;;34.96;20.10;101189.50;5092695;28;20122;-67
2021/05/01 08:06:40;;;;;;;14.18;3.05;;;;;;;35.07;20.48;101194.97;5110840;27;20122;-66
2021/05/01 08:09:10;;;;;;;11.48;3.15;;;;;;;35.06;21.76;101200.59;5110836;28;20036;-66
2021/05/01 08:11:37;;;;;;;17.55;2.78;;;;;;;34.47;22.33;101208.00;5110746;28;20522;-66
2021/05/01 08:14:04;;;;;;;15.93;2.65;;;;;;;34.48;23.13;101207.91;5091700;28;20035;-66
2021/05/01 08:16:31;;;;;;;12.52;2.47;;;;;;;34.77;23.48;101208.41;5106528;27;20047;-66
2021/05/01 08:19:02;;;;;;;13.60;2.50;;;;;;;34.84;23.35;101215.16;5107674;28;20043;-66
2021/05/01 08:21:29;;;;;;;17.70;3.38;;;;;;;34.89;22.56;101203.81;5107820;28;20503;-67
2021/05/01 08:23:56;;;;;;;14.13;3.83;;;;;;;34.71;22.53;101214.38;5110823;28;20467;-67
2021/05/01 08:26:27;;;;;;;17.27;3.83;;;;;;;34.85;21.90;101208.69;5110960;28;20066;-67
2021/05/01 08:28:55;;;;;;;15.15;3.47;;;;;;;35.12;21.95;101205.59;5110274;28;20035;-66
2021/05/01 08:31:22;;;;;;;14.82;2.90;;;;;;;35.21;21.81;101193.91;5109504;28;20031;-67
2021/05/01 08:33:49;;;;;;;14.05;2.70;;;;;;;35.47;21.55;101183.53;5109737;28;20495;-66
2021/05/01 08:36:17;;;;;;;16.42;2.65;;;;;;;35.66;21.29;101204.88;5109849;28;20075;-66
2021/05/01 08:38:44;;;;;;;13.70;2.22;;;;;;;35.79;20.80;101195.53;5110563;28;20835;-66
2021/05/01 08:41:11;;;;;;;17.45;3.83;;;;;;;35.73;20.50;101190.53;5110918;28;20123;-66
2021/05/01 08:43:41;;;;;;;12.88;3.05;;;;;;;35.63;20.68;101184.03;5108993;28;20048;-67
2021/05/01 08:46:13;;;;;;;16.10;3.13;;;;;;;35.64;20.47;101184.91;5109474;28;20090;-67
2021/05/01 08:48:44;;;;;;;17.88;3.05;;;;;;;35.81;19.98;101170.66;5105693;28;20461;-67
2021/05/01 08:51:12;;;;;;;19.60;3.03;;;;;;;35.72;19.99;101186.03;5110472;28;20438;-67
2021/05/01 08:53:40;;;;;;;15.95;3.20;;;;;;;35.80;19.62;101174.41;5110608;28;20509;-66
2021/05/01 08:56:07;;;;;;;12.52;2.70;;;;;;;35.91;19.12;101174.38;5110769;28;20059;-66
2021/05/01 08:58:34;;;;;;;11.68;2.10;;;;;;;36.11;18.82;101170.81;5109319;28;20447;-67
2021/05/01 09:01:03;;;;;;;18.02;3.03;;;;;;;36.24;18.42;101168.78;5109968;28;20467;-66
2021/05/01 09:03:31;;;;;;;18.58;3.40;;;;;;;36.43;18.26;101168.09;5110399;28;20075;-66
2021/05/01 09:06:00;;;;;;;11.63;2.30;;;;;;;36.64;18.74;101165.34;5110470;28;20069;-66
2021/05/01 09:08:27;;;;;;;16.35;2.85;;;;;;;36.76;18.49;101164.31;5110508;28;20477;-67
2021/05/01 09:10:56;;;;;;;14.50;3.17;;;;;;;36.84;18.17;101158.13;5110589;28;20040;-67
2021/05/01 09:13:25;;;;;;;11.57;2.75;;;;;;;36.87;18.18;101163.38;5109561;28;20127;-67
2021/05/01 09:16:09;;;;;;;20.02;3.55;;;;;;;36.85;18.01;101158.00;5120826;28;20466;-67
2021/05/01 09:18:50;;;;;;;16.25;3.00;;;;;;;36.78;18.40;101145.78;5106769;28;20068;-67
2021/05/01 09:21:20;;;;;;;14.45;3.58;;;;;;;36.98;18.15;101150.38;5086352;28;20122;-66
2021/05/01 09:23:48;;;;;;;18.02;3.08;;;;;;;37.03;17.81;101150.84;5088275;28;20043;-67
2021/05/01 09:26:18;;;;;;;12.95;2.97;;;;;;;37.00;17.93;101151.13;5093170;28;20447;-67
2021/05/01 09:28:48;;;;;;;17.95;3.97;;;;;;;37.10;17.69;101146.53;5109460;28;20040;-66
2021/05/01 09:31:21;;;;;;;18.98;2.78;;;;;;;37.29;17.10;101144.91;5109213;28;20572;-67
2021/05/01 09:33:51;;;;;;;19.60;4.28;;;;;;;37.18;17.03;101147.75;5109754;28;20505;-67
2021/05/01 09:36:20;;;;;;;12.98;3.17;;;;;;;37.18;17.04;101143.13;5107303;28;20040;-67
2021/05/01 09:38:49;;;;;;;12.30;3.17;;;;;;;37.15;17.08;101145.31;5107100;28;20067;-66
2021/05/01 09:41:20;;;;;;;16.08;3.20;;;;;;;36.95;16.90;101147.03;5108151;28;20506;-66
2021/05/01 09:44:02;;;;;;;15.27;3.38;;;;;;;36.50;17.05;101144.53;5109032;28;20124;-67
2021/05/01 09:46:31;;;;;;;16.90;2.92;;;;;;;36.42;17.15;101143.47;5112298;28;20112;-67
2021/05/01 09:49:08;;;;;;;13.63;3.03;;;;;;;36.48;17.27;101148.44;5113566;28;20499;-67
2021/05/01 09:51:47;;;;;;;13.73;2.22;;;;;;;36.66;17.11;101149.63;5112345;28;20032;-66
2021/05/01 09:54:16;;;;;;;18.30;3.60;;;;;;;36.57;17.04;101148.50;5113775;28;20066;-66
2021/05/01 09:56:45;;;;;;;17.70;2.72;;;;;;;36.60;17.13;101151.00;5113170;28;20119;-67
2021/05/01 09:59:12;;;;;;;15.77;3.45;;;;;;;36.50;16.90;101155.53;5112840;28;20044;-66
2021/05/01 10:01:42;;;;;;;12.30;2.88;;;;;;;36.14;17.10;101156.81;5113448;28;20032;-66
2021/05/01 10:04:15;;;;;;;11.50;3.10;;;;;;;35.64;17.60;101157.44;5111533;27;20126;-66
2021/05/01 10:06:47;;;;;;;18.48;2.88;;;;;;;35.21;17.76;101160.97;5110344;28;20478;-67
2021/05/01 10:09:24;;;;;;;17.88;3.80;;;;;;;34.84;17.71;101160.28;5100854;28;20050;-66
2021/05/01 10:11:54;;;;;;;18.30;3.38;;;;;;;34.72;18.00;101151.13;5111891;28;20131;-66
2021/05/01 10:14:43;;;;;;;14.27;2.80;;;;;;;35.07;17.77;101156.53;5112069;28;20495;-66
2021/05/01 10:17:14;;;;;;;14.32;2.80;;;;;;;35.49;17.32;101156.81;5112242;28;20399;-66
2021/05/01 10:19:47;;;;;;;13.52;2.88;;;;;;;35.80;17.19;101164.28;5113559;28;20085;-66
2021/05/01 10:22:36;;;;;;;14.15;2.83;;;;;;;35.78;17.22;101163.53;5113785;28;20467;-66
2021/05/01 10:25:07;;;;;;;16.60;2.72;;;;;;;36.03;17.23;101170.63;5109259;28;20031;-66
2021/05/01 10:27:46;;;;;;;15.13;3.22;;;;;;;35.93;17.27;101159.50;5112929;28;20092;-66
2021/05/01 10:30:28;;;;;;;9.52;3.10;;;;;;;36.00;17.44;101168.13;5113880;28;20036;-67
2021/05/01 10:33:09;;;;;;;15.23;3.00;;;;;;;35.98;17.20;101175.59;5114116;28;20043;-66
2021/05/01 10:35:37;;;;;;;15.25;2.75;;;;;;;35.92;16.95;101182.50;5113119;28;20059;-67
2021/05/01 10:38:06;;;;;;;18.27;3.15;;;;;;;35.58;17.33;101190.94;5113301;28;20464;-66
2021/05/01 10:40:45;;;;;;;21.10;3.67;;;;;;;35.27;17.27;101196.16;5112162;28;20092;-66
2021/05/01 10:43:17;;;;;;;16.70;3.38;;;;;;;34.97;16.71;101187.63;5106485;28;20032;-66
2021/05/01 10:46:05;;;;;;;12.65;2.53;;;;;;;34.75;17.40;101197.56;5113005;28;20073;-66
2021/05/01 10:48:35;;;;;;;26.42;3.50;;;;;;;34.98;16.77;101203.09;5112150;28;20053;-67
2021/05/01 10:51:06;;;;;;;13.00;3.80;;;;;;;35.22;15.91;101203.91;5111375;28;20036;-66
2021/05/01 10:53:34;;;;;;;20.83;3.60;;;;;;;35.21;15.94;101204.91;5111851;28;20110;-67
2021/05/01 10:56:05;;;;;;;19.55;3.38;;;;;;;35.07;16.36;101202.34;5111761;28;20134;-66
2021/05/01 10:58:41;;;;;;;16.83;3.72;;;;;;;35.07;16.31;101207.84;5112513;28;20042;-67
2021/05/01 11:01:11;;;;;;;18.92;3.90;;;;;;;35.07;16.08;101207.84;5111362;28;20067;-66
2021/05/01 11:03:48;;;;;;;20.70;3.88;;;;;;;35.22;16.34;101209.41;5112617;28;20066;-66
2021/05/01 11:06:23;;;;;;;13.65;2.50;;;;;;;35.33;15.83;101214.88;5112630;28;20035;-66
2021/05/01 11:08:59;;;;;;;15.63;3.08;;;;;;;35.51;15.78;101215.28;5112877;28;20060;-66
2021/05/01 11:11:32;;;;;;;19.77;3.88;;;;;;;35.62;15.89;101211.66;5112378;28;20036;-66
2021/05/01 11:14:05;;;;;;;15.77;2.47;;;;;;;35.33;15.22;101214.88;5112481;28;20059;-66
2021/05/01 11:16:45;;;;;;;12.52;2.85;;;;;;;35.05;14.97;101205.22;5110909;28;20119;-66
2021/05/01 11:19:15;;;;;;;18.05;4.10;;;;;;;34.98;14.91;101211.34;5110977;27;20039;-66
2021/05/01 11:21:46;;;;;;;13.38;3.13;;;;;;;35.08;15.30;101204.09;5111574;28;20040;-66
2021/05/01 11:24:14;;;;;;;16.50;3.55;;;;;;;35.30;15.25;101201.41;5091326;28;20044;-66
2021/05/01 11:26:46;;;;;;;16.70;3.85;;;;;;;35.53;14.75;101205.03;5109097;28;20036;-66
2021/05/01 11:29:14;;;;;;;15.52;3.05;;;;;;;35.56;15.30;101202.03;5111460;28;20043;-66